createdAt,value
2023-02-08T00:01:10.854Z,4.27
2023-02-08T00:03:38.712Z,8.50
2023-02-08T00:06:07.550Z,7.07
2023-02-08T00:08:35.683Z,6.17
2023-02-08T00:11:04.270Z,7.60
2023-02-08T00:13:32.609Z,9.07
2023-02-08T00:16:00.780Z,8.97
2023-02-08T00:18:28.489Z,9.97
2023-02-08T00:20:57.400Z,4.87
2023-02-08T00:23:26.265Z,7.73
2023-02-08T00:25:54.076Z,6.63
2023-02-08T00:28:21.730Z,7.20
2023-02-08T00:30:49.549Z,10.17
2023-02-08T00:33:17.268Z,8.33
2023-02-08T00:35:45.110Z,6.23
2023-02-08T00:38:12.902Z,7.23
2023-02-08T00:40:40.770Z,8.53
2023-02-08T00:43:08.504Z,9.23
2023-02-08T00:45:36.179Z,4.67
2023-02-08T00:48:03.846Z,7.93
2023-02-08T00:50:31.511Z,6.47
2023-02-08T00:52:59.985Z,8.40
2023-02-08T00:55:27.925Z,4.93
2023-02-08T00:57:55.670Z,7.00
2023-02-08T01:00:23.734Z,4.40
2023-02-08T01:02:51.312Z,7.40
2023-02-08T01:05:19.522Z,7.13
2023-02-08T01:07:47.230Z,6.97
2023-02-08T01:10:14.891Z,5.70
2023-02-08T01:12:42.577Z,5.57
2023-02-08T01:15:10.332Z,5.10
2023-02-08T01:17:39.534Z,6.30
2023-02-08T01:20:07.652Z,11.63
2023-02-08T01:22:37.142Z,6.83
2023-02-08T01:25:04.832Z,4.77
2023-02-08T01:27:32.489Z,4.80
2023-02-08T01:30:00.048Z,5.80
2023-02-08T01:32:29.160Z,7.53
2023-02-08T01:34:56.802Z,6.97
2023-02-08T01:37:24.548Z,6.40
2023-02-08T01:39:52.150Z,6.97
2023-02-08T01:42:22.403Z,2.73
2023-02-08T01:45:23.519Z,3.70
2023-02-08T01:48:10.637Z,5.40
2023-02-08T01:51:01.975Z,3.20
2023-02-08T01:53:31.899Z,4.23
2023-02-08T01:56:03.696Z,4.67
2023-02-08T01:58:34.498Z,4.53
2023-02-08T02:01:03.946Z,2.97
2023-02-08T02:03:31.783Z,7.10
2023-02-08T02:06:17.148Z,6.90
2023-02-08T02:08:56.236Z,6.17
2023-02-08T02:11:24.634Z,7.77
2023-02-08T02:13:54.689Z,6.77
2023-02-08T02:16:22.264Z,6.17
2023-02-08T02:18:51.730Z,6.17
2023-02-08T02:21:46.184Z,7.93
2023-02-08T02:24:28.621Z,3.17
2023-02-08T02:27:14.319Z,7.43
2023-02-08T02:30:05.227Z,6.43
2023-02-08T02:32:59.036Z,4.67
2023-02-08T02:35:30.014Z,4.37
2023-02-08T02:38:24.751Z,3.40
2023-02-08T02:41:45.116Z,6.17
2023-02-08T02:44:39.049Z,4.53
2023-02-08T02:47:34.757Z,3.53
2023-02-08T02:50:22.675Z,4.07
2023-02-08T02:53:01.113Z,6.23
2023-02-08T02:55:34.205Z,6.47
2023-02-08T02:58:03.718Z,3.53
2023-02-08T03:00:32.856Z,5.67
2023-02-08T03:03:00.835Z,3.67
2023-02-08T03:05:29.420Z,6.63
2023-02-08T03:08:17.247Z,1.77
2023-02-08T03:11:07.646Z,6.33
2023-02-08T03:14:19.378Z,3.70
2023-02-08T03:17:25.981Z,4.23
2023-02-08T03:20:07.277Z,3.17
2023-02-08T03:22:45.746Z,3.07
2023-02-08T03:25:24.130Z,13.73
2023-02-08T03:28:03.687Z,7.97
2023-02-08T03:30:39.110Z,8.67
2023-02-08T03:33:14.620Z,5.30
2023-02-08T03:36:05.065Z,4.43
2023-02-08T03:38:37.999Z,1.53
2023-02-08T03:41:10.285Z,8.57
2023-02-08T03:43:42.848Z,7.75
2023-02-08T03:46:31.938Z,4.45
2023-02-08T03:49:07.572Z,3.50
2023-02-08T03:51:37.459Z,5.13
2023-02-08T03:54:09.066Z,3.20
2023-02-08T03:56:52.180Z,3.10
2023-02-08T03:59:27.531Z,3.33
2023-02-08T04:02:05.750Z,2.83
2023-02-08T04:04:38.034Z,7.33
2023-02-08T04:07:06.959Z,2.67
2023-02-08T04:09:34.558Z,3.47
2023-02-08T04:12:02.172Z,4.33
2023-02-08T04:14:29.732Z,5.57
2023-02-08T04:16:57.393Z,7.90
2023-02-08T04:19:25.068Z,3.37
2023-02-08T04:21:52.870Z,5.17
2023-02-08T04:24:20.937Z,4.07
2023-02-08T04:26:48.655Z,3.40
2023-02-08T04:29:16.265Z,5.23
2023-02-08T04:31:43.894Z,4.83
2023-02-08T04:34:11.661Z,3.93
2023-02-08T04:36:39.293Z,4.17
2023-02-08T04:39:06.934Z,2.17
2023-02-08T04:41:34.530Z,2.60
2023-02-08T04:44:02.164Z,5.60
2023-02-08T04:46:29.777Z,4.57
2023-02-08T04:48:58.964Z,3.90
2023-02-08T04:51:26.795Z,2.53
2023-02-08T04:53:54.521Z,3.73
2023-02-08T04:56:23.217Z,5.53
2023-02-08T04:58:50.944Z,6.73
2023-02-08T05:01:18.859Z,5.67
2023-02-08T05:03:47.544Z,24.23
2023-02-08T05:06:15.511Z,8.63
2023-02-08T05:08:43.473Z,7.37
2023-02-08T05:11:11.386Z,6.20
2023-02-08T05:13:38.940Z,3.73
2023-02-08T05:16:06.764Z,4.20
2023-02-08T05:18:34.378Z,5.60
2023-02-08T05:21:02.034Z,6.67
2023-02-08T05:23:29.971Z,10.77
2023-02-08T05:25:57.985Z,4.70
2023-02-08T05:28:26.241Z,4.60
2023-02-08T05:30:54.245Z,7.30
2023-02-08T05:33:22.181Z,4.60
2023-02-08T05:35:49.790Z,3.27
2023-02-08T05:38:17.410Z,4.67
2023-02-08T05:40:44.980Z,5.20
2023-02-08T05:43:12.612Z,5.13
2023-02-08T05:45:40.239Z,9.47
2023-02-08T05:48:07.871Z,5.43
2023-02-08T05:50:35.663Z,4.27
2023-02-08T05:53:03.457Z,6.10
2023-02-08T05:55:31.104Z,9.33
2023-02-08T05:57:58.771Z,19.57
2023-02-08T06:00:26.589Z,7.73
2023-02-08T06:02:54.328Z,6.27
2023-02-08T06:05:22.024Z,6.87
2023-02-08T06:07:49.609Z,3.23
2023-02-08T06:10:17.319Z,5.27
2023-02-08T06:12:45.116Z,19.13
2023-02-08T06:15:12.826Z,28.50
2023-02-08T06:17:40.482Z,10.93
2023-02-08T06:20:08.650Z,8.27
2023-02-08T06:22:36.462Z,4.50
2023-02-08T06:25:04.188Z,22.20
2023-02-08T06:27:31.807Z,8.43
2023-02-08T06:29:59.446Z,9.07
2023-02-08T06:32:27.237Z,7.03
2023-02-08T06:34:55.045Z,8.83
2023-02-08T06:37:22.685Z,11.37
2023-02-08T06:39:50.276Z,5.23
2023-02-08T06:42:17.953Z,8.47
2023-02-08T06:44:54.701Z,11.47
2023-02-08T06:47:24.013Z,5.77
2023-02-08T06:49:54.386Z,2.70
2023-02-08T06:52:22.156Z,8.63
2023-02-08T06:54:49.809Z,5.70
2023-02-08T06:57:17.509Z,5.57
2023-02-08T06:59:45.857Z,6.03
2023-02-08T07:02:16.339Z,3.43
2023-02-08T07:04:45.878Z,3.87
2023-02-08T07:07:14.828Z,6.00
2023-02-08T07:09:42.575Z,6.37
2023-02-08T07:12:10.702Z,4.37
2023-02-08T07:14:41.557Z,2.77
2023-02-08T07:17:10.216Z,6.50
2023-02-08T07:19:38.398Z,6.23
2023-02-08T07:22:08.627Z,7.30
2023-02-08T07:24:38.535Z,5.03
2023-02-08T07:27:07.992Z,5.53
2023-02-08T07:29:35.840Z,5.33
2023-02-08T07:32:05.438Z,5.27
2023-02-08T07:34:35.856Z,8.10
2023-02-08T07:37:04.040Z,11.43
2023-02-08T07:39:31.815Z,6.77
2023-02-08T07:41:59.868Z,6.60
2023-02-08T07:44:32.013Z,6.80
2023-02-08T07:46:59.694Z,4.37
2023-02-08T07:49:27.690Z,8.10
2023-02-08T07:51:55.310Z,7.37
2023-02-08T07:54:23.005Z,6.70
2023-02-08T07:56:50.629Z,5.77
2023-02-08T07:59:18.187Z,4.43
2023-02-08T08:01:45.995Z,8.13
2023-02-08T08:04:13.664Z,5.20
2023-02-08T08:06:41.388Z,6.30
2023-02-08T08:09:09.005Z,7.37
2023-02-08T08:11:36.796Z,6.40
2023-02-08T08:14:04.397Z,4.80
2023-02-08T08:16:31.946Z,9.07
2023-02-08T08:18:59.588Z,6.75
2023-02-08T08:21:27.611Z,8.00
2023-02-08T08:23:55.592Z,5.25
2023-02-08T08:26:23.250Z,10.88
2023-02-08T08:28:50.887Z,8.53
2023-02-08T08:31:21.153Z,8.67
2023-02-08T08:33:49.590Z,10.02
2023-02-08T08:36:17.190Z,4.87
2023-02-08T08:38:44.849Z,4.97
2023-02-08T08:41:17.167Z,9.35
2023-02-08T08:43:45.076Z,6.28
2023-02-08T08:46:12.792Z,5.37
2023-02-08T08:48:40.605Z,6.43
2023-02-08T08:51:08.648Z,7.73
2023-02-08T08:53:37.606Z,7.80
2023-02-08T08:56:06.234Z,9.57
2023-02-08T08:58:34.210Z,11.97
2023-02-08T09:01:02.052Z,12.57
2023-02-08T09:03:30.235Z,7.60
2023-02-08T09:05:58.250Z,8.57
2023-02-08T09:08:25.903Z,9.35
2023-02-08T09:10:53.656Z,9.43
2023-02-08T09:13:21.893Z,8.98
2023-02-08T09:15:49.736Z,10.10
2023-02-08T09:18:17.671Z,7.53
2023-02-08T09:20:45.671Z,6.43
2023-02-08T09:23:14.617Z,12.40
2023-02-08T09:25:42.456Z,11.38
2023-02-08T09:28:10.042Z,6.95
2023-02-08T09:30:37.821Z,9.30
2023-02-08T09:33:05.526Z,9.68
2023-02-08T09:35:33.357Z,7.55
2023-02-08T09:38:04.597Z,7.30
2023-02-08T09:40:44.129Z,9.30
2023-02-08T09:43:41.710Z,5.95
2023-02-08T09:46:21.524Z,6.80
2023-02-08T09:48:52.473Z,9.20
2023-02-08T09:52:02.698Z,8.20
2023-02-08T09:54:52.337Z,8.70
2023-02-08T09:57:24.364Z,8.07
2023-02-08T10:00:00.460Z,9.20
2023-02-08T10:02:31.199Z,8.00
2023-02-08T10:05:02.402Z,10.05
2023-02-08T10:07:32.503Z,15.00
2023-02-08T10:10:04.015Z,10.95
2023-02-08T10:12:31.626Z,13.75
2023-02-08T10:15:14.277Z,10.10
2023-02-08T10:18:18.768Z,14.75
2023-02-08T10:21:08.157Z,9.82
2023-02-08T10:23:46.572Z,11.02
2023-02-08T10:26:24.982Z,10.38
2023-02-08T10:29:22.871Z,12.05
2023-02-08T10:32:08.134Z,11.57
2023-02-08T10:34:56.474Z,11.15
2023-02-08T10:37:36.672Z,9.80
2023-02-08T10:40:24.037Z,10.15
2023-02-08T10:43:00.916Z,8.05
2023-02-08T10:45:37.078Z,8.80
2023-02-08T10:48:17.639Z,11.13
2023-02-08T10:50:47.648Z,9.70
2023-02-08T10:53:17.458Z,8.90
2023-02-08T10:55:47.085Z,8.40
2023-02-08T10:58:21.407Z,9.73
2023-02-08T11:00:50.019Z,10.82
2023-02-08T11:03:29.572Z,11.70
2023-02-08T11:05:57.672Z,8.48
2023-02-08T11:08:27.866Z,10.18
2023-02-08T11:11:07.797Z,9.15
2023-02-08T11:13:44.074Z,15.55
2023-02-08T11:16:20.297Z,12.50
2023-02-08T11:18:53.671Z,7.85
2023-02-08T11:21:33.814Z,12.40
2023-02-08T11:24:08.837Z,13.10
2023-02-08T11:26:40.426Z,6.85
2023-02-08T11:29:19.662Z,11.55
2023-02-08T11:32:02.461Z,8.13
2023-02-08T11:34:38.475Z,8.98
2023-02-08T11:37:28.751Z,15.30
2023-02-08T11:40:00.758Z,9.65
2023-02-08T11:42:35.424Z,10.10
2023-02-08T11:45:04.931Z,5.95
2023-02-08T11:47:37.719Z,7.03
2023-02-08T11:50:08.306Z,8.88
2023-02-08T11:52:42.963Z,11.18
2023-02-08T11:55:19.854Z,5.95
2023-02-08T11:58:16.865Z,9.10
2023-02-08T12:01:03.134Z,10.73
2023-02-08T12:03:40.421Z,11.80
2023-02-08T12:06:20.434Z,8.18
2023-02-08T12:08:51.063Z,8.85
2023-02-08T12:11:30.512Z,6.47
2023-02-08T12:14:30.246Z,9.35
2023-02-08T12:17:16.167Z,12.15
2023-02-08T12:20:27.578Z,13.90
2023-02-08T12:23:27.283Z,8.57
2023-02-08T12:26:07.166Z,6.53
2023-02-08T12:28:49.411Z,7.45
2023-02-08T12:31:23.288Z,9.25
2023-02-08T12:34:14.029Z,13.93
2023-02-08T12:37:39.516Z,7.65
2023-02-08T12:40:48.233Z,7.38
2023-02-08T12:43:22.022Z,12.20
2023-02-08T12:46:07.228Z,10.60
2023-02-08T12:49:11.091Z,8.52
2023-02-08T12:51:54.837Z,7.82
2023-02-08T12:54:32.737Z,10.07
2023-02-08T12:57:02.882Z,9.63
2023-02-08T12:59:36.606Z,7.63
2023-02-08T13:02:16.786Z,11.35
2023-02-08T13:04:49.833Z,14.35
2023-02-08T13:07:31.656Z,13.70
2023-02-08T13:10:27.075Z,11.32
2023-02-08T13:13:04.916Z,12.48
2023-02-08T13:15:47.084Z,6.40
2023-02-08T13:18:20.393Z,10.65
2023-02-08T13:20:59.360Z,10.15
2023-02-08T13:23:50.557Z,11.05
2023-02-08T13:26:33.129Z,7.75
2023-02-08T13:29:02.796Z,7.88
2023-02-08T13:31:41.269Z,8.38
2023-02-08T13:34:25.298Z,10.88
2023-02-08T13:36:57.513Z,11.65
2023-02-08T13:39:41.313Z,7.13
2023-02-08T13:42:27.908Z,8.60
2023-02-08T13:44:57.412Z,6.57
2023-02-08T13:47:34.432Z,6.68
2023-02-08T13:50:07.850Z,6.93
2023-02-08T13:52:48.120Z,8.80
2023-02-08T13:55:36.283Z,7.18
2023-02-08T13:58:16.119Z,11.70
2023-02-08T14:00:59.198Z,10.63
2023-02-08T14:03:35.237Z,7.35
2023-02-08T14:06:17.144Z,7.45
2023-02-08T14:08:52.354Z,9.30
2023-02-08T14:11:23.292Z,5.75
2023-02-08T14:13:55.156Z,5.28
2023-02-08T14:16:45.460Z,8.05
2023-02-08T14:19:16.032Z,7.03
2023-02-08T14:21:47.008Z,8.98
2023-02-08T14:24:26.936Z,6.72
2023-02-08T14:27:28.702Z,8.90
2023-02-08T14:29:59.280Z,8.07
2023-02-08T14:32:33.830Z,8.15
2023-02-08T14:35:23.624Z,12.27
2023-02-08T14:38:11.823Z,15.15
2023-02-08T14:40:54.941Z,14.65
2023-02-08T14:46:37.851Z,11.13
2023-02-08T14:49:17.905Z,13.00
2023-02-08T14:51:59.968Z,17.42
2023-02-08T14:54:57.831Z,9.98
2023-02-08T14:57:35.921Z,10.02
2023-02-08T15:00:16.968Z,12.65
2023-02-08T15:02:46.102Z,14.98
2023-02-08T15:05:29.123Z,11.60
2023-02-08T15:07:59.410Z,16.35
2023-02-08T15:10:30.611Z,12.00
2023-02-08T15:13:02.490Z,13.10
2023-02-08T15:15:44.330Z,14.17
2023-02-08T15:18:25.533Z,11.15
2023-02-08T15:21:20.876Z,13.43
2023-02-08T15:24:05.564Z,13.30
2023-02-08T15:26:33.821Z,9.63
2023-02-08T15:29:01.729Z,15.82
2023-02-08T15:31:34.355Z,22.02
2023-02-08T15:34:03.121Z,20.30
2023-02-08T15:36:34.212Z,23.42
2023-02-08T15:39:09.980Z,24.90
2023-02-08T15:41:38.287Z,19.33
2023-02-08T15:44:24.577Z,19.15
2023-02-08T15:49:45.206Z,19.63
2023-02-08T15:52:18.737Z,18.10
2023-02-08T15:54:48.314Z,21.50
2023-02-08T15:57:40.954Z,20.23
2023-02-08T16:00:21.619Z,17.67
2023-02-08T16:03:20.921Z,19.90
2023-02-08T16:05:55.574Z,20.23
2023-02-08T16:08:30.709Z,26.63
2023-02-08T16:11:28.323Z,28.95
2023-02-08T16:13:58.428Z,37.00
2023-02-08T16:16:44.403Z,38.97
2023-02-08T16:19:33.463Z,26.85
2023-02-08T16:22:25.637Z,97.38
2023-02-08T16:24:53.959Z,169.13
2023-02-08T16:27:28.505Z,241.07
2023-02-08T16:29:59.420Z,169.02
2023-02-08T16:32:31.694Z,107.78
2023-02-08T16:35:10.869Z,92.60
2023-02-08T16:37:39.396Z,68.10
2023-02-08T16:40:54.212Z,41.53
2023-02-08T16:43:29.464Z,31.45
2023-02-08T16:46:21.938Z,30.07
2023-02-08T16:48:52.790Z,16.40
2023-02-08T16:51:27.021Z,36.97
2023-02-08T16:54:07.073Z,28.63
2023-02-08T16:56:39.811Z,23.67
2023-02-08T16:59:08.774Z,25.38
2023-02-08T17:01:38.823Z,61.00
2023-02-08T17:04:07.449Z,99.07
2023-02-08T17:06:37.894Z,88.90
2023-02-08T17:09:10.500Z,95.03
2023-02-08T17:11:38.982Z,72.13
2023-02-08T17:14:08.428Z,55.67
2023-02-08T17:16:37.628Z,34.10
2023-02-08T17:19:06.304Z,84.27
2023-02-08T17:21:34.657Z,66.63
2023-02-08T17:24:02.581Z,47.90
2023-02-08T17:26:37.616Z,30.33
2023-02-08T17:29:06.354Z,22.17
2023-02-08T17:31:35.327Z,25.37
2023-02-08T17:34:05.903Z,22.80
2023-02-08T17:36:36.982Z,18.27
2023-02-08T17:39:06.615Z,17.33
2023-02-08T17:41:35.976Z,27.57
2023-02-08T17:44:04.762Z,39.90
2023-02-08T17:46:33.335Z,44.13
2023-02-08T17:49:01.929Z,36.57
2023-02-08T17:51:30.854Z,27.53
2023-02-08T17:53:59.950Z,27.87
2023-02-08T17:56:28.744Z,35.13
2023-02-08T17:58:58.752Z,47.57
2023-02-08T18:01:28.662Z,37.83
2023-02-08T18:03:57.369Z,29.97
2023-02-08T18:06:25.587Z,20.30
2023-02-08T18:08:55.074Z,27.83
2023-02-08T18:11:24.311Z,30.47
2023-02-08T18:13:54.880Z,35.53
2023-02-08T18:16:26.861Z,65.53
2023-02-08T18:18:57.387Z,40.55
2023-02-08T18:21:26.940Z,35.10
2023-02-08T18:23:56.182Z,53.13
2023-02-08T18:26:26.017Z,41.00
2023-02-08T18:28:54.873Z,37.77
2023-02-08T18:31:23.795Z,47.27
2023-02-08T18:33:54.818Z,102.17
2023-02-08T18:36:24.836Z,99.63
2023-02-08T18:38:56.208Z,97.50
2023-02-08T18:41:28.142Z,140.67
2023-02-08T18:43:58.843Z,74.37
2023-02-08T18:46:29.219Z,81.90
2023-02-08T18:48:58.602Z,64.17
2023-02-08T18:51:28.026Z,50.37
2023-02-08T18:53:57.739Z,45.47
2023-02-08T18:56:27.638Z,50.17
2023-02-08T18:58:59.516Z,44.13
2023-02-08T19:01:29.142Z,47.03
2023-02-08T19:03:59.421Z,48.30
2023-02-08T19:06:31.965Z,50.13
2023-02-08T19:09:04.912Z,38.97
2023-02-08T19:11:39.927Z,37.50
2023-02-08T19:14:13.826Z,32.43
2023-02-08T19:16:46.871Z,31.23
2023-02-08T19:19:16.867Z,26.37
2023-02-08T19:21:48.249Z,26.87
2023-02-08T19:24:16.969Z,30.47
2023-02-08T19:26:46.988Z,23.63
2023-02-08T19:29:18.563Z,28.33
2023-02-08T19:31:48.685Z,44.40
2023-02-08T19:34:19.458Z,50.30
2023-02-08T19:36:52.451Z,52.73
2023-02-08T19:39:27.290Z,61.87
2023-02-08T19:41:59.637Z,67.07
2023-02-08T19:46:59.902Z,80.77
2023-02-08T19:49:28.649Z,68.83
2023-02-08T19:51:57.497Z,57.93
2023-02-08T19:54:25.953Z,35.93
2023-02-08T19:56:57.706Z,47.10
2023-02-08T19:59:28.328Z,57.63
2023-02-08T20:01:58.623Z,63.57
2023-02-08T20:04:27.803Z,97.37
2023-02-08T20:06:57.080Z,70.90
2023-02-08T20:09:26.277Z,62.63
2023-02-08T20:11:57.106Z,51.80
2023-02-08T20:14:33.904Z,38.27
2023-02-08T20:17:02.986Z,37.40
2023-02-08T20:19:31.273Z,28.43
2023-02-08T20:21:59.286Z,38.67
2023-02-08T20:24:29.096Z,42.43
2023-02-08T20:26:58.020Z,51.20
2023-02-08T20:29:28.617Z,48.07
2023-02-08T20:31:58.493Z,40.93
2023-02-08T20:34:28.614Z,60.43
2023-02-08T20:37:12.404Z,56.40
2023-02-08T20:39:40.636Z,59.40
2023-02-08T20:42:11.129Z,56.97
2023-02-08T20:44:39.752Z,49.33
2023-02-08T20:47:14.323Z,32.40
2023-02-08T20:49:42.643Z,27.10
2023-02-08T20:52:11.477Z,30.10
2023-02-08T20:54:43.548Z,29.97
2023-02-08T20:57:14.602Z,30.48
2023-02-08T20:59:42.840Z,30.80
2023-02-08T21:02:22.518Z,31.37
2023-02-08T21:04:50.784Z,33.40
2023-02-08T21:07:19.094Z,38.63
2023-02-08T21:09:47.121Z,31.70
2023-02-08T21:12:15.287Z,31.37
2023-02-08T21:14:44.736Z,22.87
2023-02-08T21:17:12.616Z,28.27
2023-02-08T21:19:40.760Z,27.60
2023-02-08T21:22:08.477Z,35.17
2023-02-08T21:24:36.440Z,28.40
2023-02-08T21:27:04.542Z,26.03
2023-02-08T21:29:32.678Z,26.63
2023-02-08T21:32:00.688Z,32.67
2023-02-08T21:34:28.998Z,32.27
2023-02-08T21:36:57.189Z,18.80
2023-02-08T21:39:25.052Z,21.70
2023-02-08T21:41:53.449Z,12.00
2023-02-08T21:44:21.264Z,12.63
2023-02-08T21:46:49.008Z,21.27
2023-02-08T21:49:35.136Z,28.73
2023-02-08T21:52:21.197Z,17.87
2023-02-08T21:54:53.601Z,20.33
2023-02-08T21:57:25.877Z,23.77
2023-02-08T21:59:57.694Z,16.17
2023-02-08T22:02:28.955Z,18.53
2023-02-08T22:04:59.109Z,15.27
2023-02-08T22:07:28.161Z,35.03
2023-02-08T22:09:56.169Z,36.63
2023-02-08T22:12:24.393Z,23.83
2023-02-08T22:14:52.056Z,21.00
2023-02-08T22:17:19.646Z,14.00
2023-02-08T22:19:47.445Z,23.10
2023-02-08T22:22:15.124Z,30.17
2023-02-08T22:24:42.809Z,57.67
2023-02-08T22:27:11.663Z,68.33
2023-02-08T22:29:39.288Z,31.50
2023-02-08T22:32:08.291Z,23.97
2023-02-08T22:34:38.028Z,22.43
2023-02-08T22:37:05.990Z,34.17
2023-02-08T22:39:34.289Z,22.03
2023-02-08T22:42:08.130Z,20.60
2023-02-08T22:44:36.980Z,31.03
2023-02-08T22:47:06.783Z,28.80
2023-02-08T22:49:35.302Z,31.90
2023-02-08T22:52:03.837Z,31.00
2023-02-08T22:54:32.580Z,22.57
2023-02-08T22:57:00.506Z,32.93
2023-02-08T22:59:28.130Z,16.47
2023-02-08T23:01:55.944Z,23.83
2023-02-08T23:04:23.803Z,20.17
2023-02-08T23:06:51.955Z,27.27
2023-02-08T23:09:19.921Z,33.07
2023-02-08T23:11:47.771Z,27.47
2023-02-08T23:14:15.968Z,40.17
2023-02-08T23:16:44.090Z,33.47
2023-02-08T23:19:15.856Z,19.50
2023-02-08T23:21:44.228Z,18.30
2023-02-08T23:24:12.080Z,25.80
2023-02-08T23:26:39.993Z,18.00
2023-02-08T23:29:07.927Z,15.50
2023-02-08T23:31:35.886Z,13.67
2023-02-08T23:34:03.612Z,14.40
2023-02-08T23:36:31.471Z,9.47
2023-02-08T23:38:59.120Z,14.83
2023-02-08T23:41:26.845Z,13.47
2023-02-08T23:43:54.520Z,12.90
2023-02-08T23:46:24.895Z,12.23
2023-02-08T23:48:53.104Z,20.10
2023-02-08T23:51:22.778Z,17.30
2023-02-08T23:53:51.558Z,32.00
2023-02-08T23:56:31.960Z,26.87
2023-02-08T23:59:00.300Z,24.27
